sensor_id;sensor_type;location;lat;lon;timestamp;temperature;humidity
48988;DHT22;34799;51.440;-2.534;2023-01-15T00:01:35;5.50;99.90
48988;DHT22;34799;51.440;-2.534;2023-01-15T00:04:04;5.50;99.90
48988;DHT22;34799;51.440;-2.534;2023-01-15T00:06:35;5.50;99.90
48988;DHT22;34799;51.440;-2.534;2023-01-15T00:09:03;5.60;99.90
48988;DHT22;34799;51.440;-2.534;2023-01-15T00:11:31;5.60;99.90
48988;DHT22;34799;51.440;-2.534;2023-01-15T00:13:59;5.60;99.90
48988;DHT22;34799;51.440;-2.534;2023-01-15T00:16:26;7.10;99.90
48988;DHT22;34799;51.440;-2.534;2023-01-15T00:18:58;5.60;99.90
48988;DHT22;34799;51.440;-2.534;2023-01-15T00:21:27;5.60;99.90
48988;DHT22;34799;51.440;-2.534;2023-01-15T00:23:54;5.80;99.90
48988;DHT22;34799;51.440;-2.534;2023-01-15T00:26:40;5.60;99.90
48988;DHT22;34799;51.440;-2.534;2023-01-15T00:29:28;5.70;99.90
48988;DHT22;34799;51.440;-2.534;2023-01-15T00:32:00;5.70;99.90
48988;DHT22;34799;51.440;-2.534;2023-01-15T00:34:29;5.60;99.90
48988;DHT22;34799;51.440;-2.534;2023-01-15T00:36:57;5.80;99.90
48988;DHT22;34799;51.440;-2.534;2023-01-15T00:39:24;5.80;99.90
48988;DHT22;34799;51.440;-2.534;2023-01-15T00:41:54;5.90;99.90
48988;DHT22;34799;51.440;-2.534;2023-01-15T00:44:22;6.90;99.90
48988;DHT22;34799;51.440;-2.534;2023-01-15T00:46:50;6.20;99.90
48988;DHT22;34799;51.440;-2.534;2023-01-15T00:49:20;5.70;99.90
48988;DHT22;34799;51.440;-2.534;2023-01-15T00:51:47;5.60;99.90
48988;DHT22;34799;51.440;-2.534;2023-01-15T00:54:16;5.60;99.90
48988;DHT22;34799;51.440;-2.534;2023-01-15T00:56:43;5.60;99.90
48988;DHT22;34799;51.440;-2.534;2023-01-15T00:59:11;6.30;99.90
48988;DHT22;34799;51.440;-2.534;2023-01-15T01:01:39;5.60;99.90
48988;DHT22;34799;51.440;-2.534;2023-01-15T01:04:06;5.60;99.90
48988;DHT22;34799;51.440;-2.534;2023-01-15T01:06:34;5.60;99.90
48988;DHT22;34799;51.440;-2.534;2023-01-15T01:09:01;6.10;99.90
48988;DHT22;34799;51.440;-2.534;2023-01-15T01:11:30;5.60;99.90
48988;DHT22;34799;51.440;-2.534;2023-01-15T01:14:00;5.70;99.90
48988;DHT22;34799;51.440;-2.534;2023-01-15T01:16:36;5.70;99.90
48988;DHT22;34799;51.440;-2.534;2023-01-15T01:19:13;5.70;99.90
48988;DHT22;34799;51.440;-2.534;2023-01-15T01:21:41;6.50;99.90
48988;DHT22;34799;51.440;-2.534;2023-01-15T01:24:12;5.80;99.90
48988;DHT22;34799;51.440;-2.534;2023-01-15T01:26:39;6.30;99.90
48988;DHT22;34799;51.440;-2.534;2023-01-15T01:29:06;5.80;99.90
48988;DHT22;34799;51.440;-2.534;2023-01-15T01:31:35;6.40;99.90
48988;DHT22;34799;51.440;-2.534;2023-01-15T01:34:02;5.80;99.90
48988;DHT22;34799;51.440;-2.534;2023-01-15T01:36:32;7.20;99.90
48988;DHT22;34799;51.440;-2.534;2023-01-15T01:39:02;6.50;99.90
48988;DHT22;34799;51.440;-2.534;2023-01-15T01:41:30;5.90;99.90
48988;DHT22;34799;51.440;-2.534;2023-01-15T01:46:34;6.00;99.90
48988;DHT22;34799;51.440;-2.534;2023-01-15T01:49:10;7.00;99.90
48988;DHT22;34799;51.440;-2.534;2023-01-15T01:51:43;6.00;99.90
48988;DHT22;34799;51.440;-2.534;2023-01-15T01:54:14;6.20;99.90
48988;DHT22;34799;51.440;-2.534;2023-01-15T01:56:43;5.90;99.90
48988;DHT22;34799;51.440;-2.534;2023-01-15T01:59:11;5.90;99.90
48988;DHT22;34799;51.440;-2.534;2023-01-15T02:01:40;5.80;99.90
48988;DHT22;34799;51.440;-2.534;2023-01-15T02:04:09;5.80;99.90
48988;DHT22;34799;51.440;-2.534;2023-01-15T02:06:38;5.80;99.90
48988;DHT22;34799;51.440;-2.534;2023-01-15T02:09:08;5.80;99.90
48988;DHT22;34799;51.440;-2.534;2023-01-15T02:11:35;5.70;99.90
48988;DHT22;34799;51.440;-2.534;2023-01-15T02:16:45;5.90;99.90
48988;DHT22;34799;51.440;-2.534;2023-01-15T02:27:22;5.70;99.90
48988;DHT22;34799;51.440;-2.534;2023-01-15T02:30:12;5.80;99.90
48988;DHT22;34799;51.440;-2.534;2023-01-15T02:33:26;5.70;99.90
48988;DHT22;34799;51.440;-2.534;2023-01-15T02:35:59;5.70;99.90
48988;DHT22;34799;51.440;-2.534;2023-01-15T02:38:41;6.00;99.90
48988;DHT22;34799;51.440;-2.534;2023-01-15T02:41:13;5.50;99.90
48988;DHT22;34799;51.440;-2.534;2023-01-15T02:43:50;5.50;99.90
48988;DHT22;34799;51.440;-2.534;2023-01-15T02:46:25;5.40;99.90
48988;DHT22;34799;51.440;-2.534;2023-01-15T02:48:56;5.30;99.90
48988;DHT22;34799;51.440;-2.534;2023-01-15T02:51:34;5.20;99.90
48988;DHT22;34799;51.440;-2.534;2023-01-15T02:54:07;5.10;99.90
48988;DHT22;34799;51.440;-2.534;2023-01-15T02:56:37;5.10;99.90
48988;DHT22;34799;51.440;-2.534;2023-01-15T02:59:12;5.00;99.90
48988;DHT22;34799;51.440;-2.534;2023-01-15T03:01:47;6.00;99.90
48988;DHT22;34799;51.440;-2.534;2023-01-15T03:09:37;4.90;99.90
48988;DHT22;34799;51.440;-2.534;2023-01-15T03:12:14;4.90;99.90
48988;DHT22;34799;51.440;-2.534;2023-01-15T03:15:02;6.10;99.90
48988;DHT22;34799;51.440;-2.534;2023-01-15T03:17:51;5.00;99.90
48988;DHT22;34799;51.440;-2.534;2023-01-15T03:20:24;5.00;99.90
48988;DHT22;34799;51.440;-2.534;2023-01-15T03:23:00;5.00;99.90
48988;DHT22;34799;51.440;-2.534;2023-01-15T03:26:03;5.00;99.90
48988;DHT22;34799;51.440;-2.534;2023-01-15T03:29:04;5.50;99.90
48988;DHT22;34799;51.440;-2.534;2023-01-15T03:31:42;5.00;99.90
48988;DHT22;34799;51.440;-2.534;2023-01-15T03:38:42;6.90;99.90
48988;DHT22;34799;51.440;-2.534;2023-01-15T03:45:48;5.40;99.90
48988;DHT22;34799;51.440;-2.534;2023-01-15T03:49:45;5.00;99.90
48988;DHT22;34799;51.440;-2.534;2023-01-15T03:53:00;5.20;99.90
48988;DHT22;34799;51.440;-2.534;2023-01-15T03:56:55;4.80;99.90
48988;DHT22;34799;51.440;-2.534;2023-01-15T04:04:08;7.40;99.90
48988;DHT22;34799;51.440;-2.534;2023-01-15T04:07:54;5.00;99.90
48988;DHT22;34799;51.440;-2.534;2023-01-15T04:14:43;4.90;99.90
48988;DHT22;34799;51.440;-2.534;2023-01-15T04:17:23;4.80;99.90
48988;DHT22;34799;51.440;-2.534;2023-01-15T04:20:29;4.80;99.90
48988;DHT22;34799;51.440;-2.534;2023-01-15T04:23:48;4.20;99.90
48988;DHT22;34799;51.440;-2.534;2023-01-15T04:26:35;4.70;99.90
48988;DHT22;34799;51.440;-2.534;2023-01-15T04:36:59;4.60;99.90
48988;DHT22;34799;51.440;-2.534;2023-01-15T04:39:32;5.60;99.90
48988;DHT22;34799;51.440;-2.534;2023-01-15T04:42:15;4.50;99.90
48988;DHT22;34799;51.440;-2.534;2023-01-15T04:45:10;4.40;99.90
48988;DHT22;34799;51.440;-2.534;2023-01-15T04:48:03;4.20;99.90
48988;DHT22;34799;51.440;-2.534;2023-01-15T04:51:06;4.50;99.90
48988;DHT22;34799;51.440;-2.534;2023-01-15T04:53:45;4.70;99.90
48988;DHT22;34799;51.440;-2.534;2023-01-15T04:56:30;4.50;99.90
48988;DHT22;34799;51.440;-2.534;2023-01-15T04:59:20;5.00;99.90
48988;DHT22;34799;51.440;-2.534;2023-01-15T05:02:45;4.60;99.90
48988;DHT22;34799;51.440;-2.534;2023-01-15T05:05:44;4.60;99.90
48988;DHT22;34799;51.440;-2.534;2023-01-15T05:08:43;5.00;99.90
48988;DHT22;34799;51.440;-2.534;2023-01-15T05:11:24;4.70;99.90
48988;DHT22;34799;51.440;-2.534;2023-01-15T05:13:59;5.20;99.90
48988;DHT22;34799;51.440;-2.534;2023-01-15T05:16:38;4.80;99.90
48988;DHT22;34799;51.440;-2.534;2023-01-15T05:19:28;3.20;99.90
48988;DHT22;34799;51.440;-2.534;2023-01-15T05:22:42;5.20;99.90
48988;DHT22;34799;51.440;-2.534;2023-01-15T05:25:26;4.80;99.90
48988;DHT22;34799;51.440;-2.534;2023-01-15T05:28:01;5.40;99.90
48988;DHT22;34799;51.440;-2.534;2023-01-15T05:30:37;6.60;99.90
48988;DHT22;34799;51.440;-2.534;2023-01-15T05:33:40;4.90;99.90
48988;DHT22;34799;51.440;-2.534;2023-01-15T05:36:23;4.90;99.90
48988;DHT22;34799;51.440;-2.534;2023-01-15T05:39:56;4.90;99.90
48988;DHT22;34799;51.440;-2.534;2023-01-15T05:42:38;5.00;99.90
48988;DHT22;34799;51.440;-2.534;2023-01-15T05:45:17;6.60;99.90
48988;DHT22;34799;51.440;-2.534;2023-01-15T05:47:56;5.30;99.90
48988;DHT22;34799;51.440;-2.534;2023-01-15T05:50:40;5.30;99.90
48988;DHT22;34799;51.440;-2.534;2023-01-15T05:53:26;5.00;99.90
48988;DHT22;34799;51.440;-2.534;2023-01-15T05:56:11;4.90;99.90
48988;DHT22;34799;51.440;-2.534;2023-01-15T05:59:01;5.00;99.90
48988;DHT22;34799;51.440;-2.534;2023-01-15T06:01:48;4.90;99.90
48988;DHT22;34799;51.440;-2.534;2023-01-15T06:04:50;5.10;99.90
48988;DHT22;34799;51.440;-2.534;2023-01-15T06:07:34;4.90;99.90
48988;DHT22;34799;51.440;-2.534;2023-01-15T06:10:15;5.10;99.90
48988;DHT22;34799;51.440;-2.534;2023-01-15T06:13:02;6.50;99.90
48988;DHT22;34799;51.440;-2.534;2023-01-15T06:15:51;6.80;99.90
48988;DHT22;34799;51.440;-2.534;2023-01-15T06:18:42;5.10;99.90
48988;DHT22;34799;51.440;-2.534;2023-01-15T06:21:40;5.10;99.90
48988;DHT22;34799;51.440;-2.534;2023-01-15T06:24:42;6.50;99.90
48988;DHT22;34799;51.440;-2.534;2023-01-15T06:27:27;5.20;99.90
48988;DHT22;34799;51.440;-2.534;2023-01-15T06:30:05;5.00;99.90
48988;DHT22;34799;51.440;-2.534;2023-01-15T06:32:42;5.00;99.90
48988;DHT22;34799;51.440;-2.534;2023-01-15T06:35:12;4.80;99.90
48988;DHT22;34799;51.440;-2.534;2023-01-15T06:37:44;5.10;99.90
48988;DHT22;34799;51.440;-2.534;2023-01-15T06:40:18;5.00;99.90
48988;DHT22;34799;51.440;-2.534;2023-01-15T06:42:58;5.00;99.90
48988;DHT22;34799;51.440;-2.534;2023-01-15T06:45:47;5.10;99.90
48988;DHT22;34799;51.440;-2.534;2023-01-15T06:51:09;5.10;99.90
48988;DHT22;34799;51.440;-2.534;2023-01-15T06:53:52;5.10;99.90
48988;DHT22;34799;51.440;-2.534;2023-01-15T06:56:23;5.20;99.90
48988;DHT22;34799;51.440;-2.534;2023-01-15T06:58:51;5.40;99.90
48988;DHT22;34799;51.440;-2.534;2023-01-15T07:01:28;6.70;99.90
48988;DHT22;34799;51.440;-2.534;2023-01-15T07:03:58;5.60;99.90
48988;DHT22;34799;51.440;-2.534;2023-01-15T07:06:27;5.20;99.90
48988;DHT22;34799;51.440;-2.534;2023-01-15T07:08:57;5.80;99.90
48988;DHT22;34799;51.440;-2.534;2023-01-15T07:11:30;5.10;99.90
48988;DHT22;34799;51.440;-2.534;2023-01-15T07:14:12;5.50;99.90
48988;DHT22;34799;51.440;-2.534;2023-01-15T07:16:43;6.10;99.90
48988;DHT22;34799;51.440;-2.534;2023-01-15T07:19:17;5.10;99.90
48988;DHT22;34799;51.440;-2.534;2023-01-15T07:22:11;5.60;99.90
48988;DHT22;34799;51.440;-2.534;2023-01-15T07:24:47;5.50;99.90
48988;DHT22;34799;51.440;-2.534;2023-01-15T07:27:21;7.70;99.90
48988;DHT22;34799;51.440;-2.534;2023-01-15T07:29:54;7.30;99.90
48988;DHT22;34799;51.440;-2.534;2023-01-15T07:35:12;5.50;99.90
48988;DHT22;34799;51.440;-2.534;2023-01-15T07:37:44;4.40;99.90
48988;DHT22;34799;51.440;-2.534;2023-01-15T07:40:21;3.90;99.90
48988;DHT22;34799;51.440;-2.534;2023-01-15T07:43:08;5.30;99.90
48988;DHT22;34799;51.440;-2.534;2023-01-15T07:46:01;5.70;99.90
48988;DHT22;34799;51.440;-2.534;2023-01-15T07:51:48;5.40;99.90
48988;DHT22;34799;51.440;-2.534;2023-01-15T07:54:25;5.60;99.90
48988;DHT22;34799;51.440;-2.534;2023-01-15T07:57:22;5.40;99.90
48988;DHT22;34799;51.440;-2.534;2023-01-15T07:59:59;5.60;99.90
48988;DHT22;34799;51.440;-2.534;2023-01-15T08:02:41;6.00;99.90
48988;DHT22;34799;51.440;-2.534;2023-01-15T08:05:43;5.50;99.90
48988;DHT22;34799;51.440;-2.534;2023-01-15T08:08:28;5.60;99.90
48988;DHT22;34799;51.440;-2.534;2023-01-15T08:11:02;6.20;99.90
48988;DHT22;34799;51.440;-2.534;2023-01-15T08:14:09;5.60;99.90
48988;DHT22;34799;51.440;-2.534;2023-01-15T08:17:01;6.00;99.90
48988;DHT22;34799;51.440;-2.534;2023-01-15T08:19:44;6.60;99.90
48988;DHT22;34799;51.440;-2.534;2023-01-15T08:22:17;5.30;99.90
48988;DHT22;34799;51.440;-2.534;2023-01-15T08:25:01;5.90;99.90
48988;DHT22;34799;51.440;-2.534;2023-01-15T08:27:37;5.70;99.90
48988;DHT22;34799;51.440;-2.534;2023-01-15T08:30:12;6.20;99.90
48988;DHT22;34799;51.440;-2.534;2023-01-15T08:32:59;5.90;99.90
48988;DHT22;34799;51.440;-2.534;2023-01-15T08:35:37;5.90;99.90
48988;DHT22;34799;51.440;-2.534;2023-01-15T08:38:11;5.90;99.90
48988;DHT22;34799;51.440;-2.534;2023-01-15T08:40:59;7.80;99.90
48988;DHT22;34799;51.440;-2.534;2023-01-15T08:43:31;6.00;99.90
48988;DHT22;34799;51.440;-2.534;2023-01-15T08:46:06;6.00;99.90
48988;DHT22;34799;51.440;-2.534;2023-01-15T08:48:47;5.90;99.90
48988;DHT22;34799;51.440;-2.534;2023-01-15T08:51:22;5.60;99.90
48988;DHT22;34799;51.440;-2.534;2023-01-15T08:53:55;5.80;99.90
48988;DHT22;34799;51.440;-2.534;2023-01-15T08:56:30;5.60;99.90
48988;DHT22;34799;51.440;-2.534;2023-01-15T08:59:08;5.70;99.90
48988;DHT22;34799;51.440;-2.534;2023-01-15T09:01:36;4.50;99.90
48988;DHT22;34799;51.440;-2.534;2023-01-15T09:04:18;5.70;99.90
48988;DHT22;34799;51.440;-2.534;2023-01-15T09:11:06;5.30;99.90
48988;DHT22;34799;51.440;-2.534;2023-01-15T09:13:48;5.20;99.90
48988;DHT22;34799;51.440;-2.534;2023-01-15T09:16:51;5.20;99.90
48988;DHT22;34799;51.440;-2.534;2023-01-15T09:19:37;3.30;99.90
48988;DHT22;34799;51.440;-2.534;2023-01-15T09:22:29;5.10;99.90
48988;DHT22;34799;51.440;-2.534;2023-01-15T09:27:30;5.20;99.90
48988;DHT22;34799;51.440;-2.534;2023-01-15T09:30:06;5.40;99.90
48988;DHT22;34799;51.440;-2.534;2023-01-15T09:32:49;5.30;99.90
48988;DHT22;34799;51.440;-2.534;2023-01-15T09:43:49;5.20;99.90
48988;DHT22;34799;51.440;-2.534;2023-01-15T09:46:31;5.40;99.90
48988;DHT22;34799;51.440;-2.534;2023-01-15T09:57:14;5.70;99.90
48988;DHT22;34799;51.440;-2.534;2023-01-15T09:59:46;5.90;99.90
48988;DHT22;34799;51.440;-2.534;2023-01-15T10:02:25;5.90;99.90
48988;DHT22;34799;51.440;-2.534;2023-01-15T10:05:25;6.00;99.90
48988;DHT22;34799;51.440;-2.534;2023-01-15T10:08:05;6.20;99.90
48988;DHT22;34799;51.440;-2.534;2023-01-15T10:11:34;6.30;99.90
48988;DHT22;34799;51.440;-2.534;2023-01-15T10:13:46;6.40;99.90
48988;DHT22;34799;51.440;-2.534;2023-01-15T10:16:25;6.40;99.90
48988;DHT22;34799;51.440;-2.534;2023-01-15T10:18:55;6.40;99.90
48988;DHT22;34799;51.440;-2.534;2023-01-15T10:21:49;6.40;99.90
48988;DHT22;34799;51.440;-2.534;2023-01-15T10:24:37;6.30;99.90
48988;DHT22;34799;51.440;-2.534;2023-01-15T10:27:17;6.20;99.90
48988;DHT22;34799;51.440;-2.534;2023-01-15T10:29:49;6.20;99.90
48988;DHT22;34799;51.440;-2.534;2023-01-15T10:35:30;6.10;99.90
48988;DHT22;34799;51.440;-2.534;2023-01-15T10:46:21;6.20;99.90
48988;DHT22;34799;51.440;-2.534;2023-01-15T10:48:52;6.40;99.90
48988;DHT22;34799;51.440;-2.534;2023-01-15T10:51:23;6.40;99.90
48988;DHT22;34799;51.440;-2.534;2023-01-15T10:56:44;6.40;99.90
48988;DHT22;34799;51.440;-2.534;2023-01-15T10:59:17;6.30;99.90
48988;DHT22;34799;51.440;-2.534;2023-01-15T11:01:52;6.40;99.90
48988;DHT22;34799;51.440;-2.534;2023-01-15T11:04:20;6.40;99.90
48988;DHT22;34799;51.440;-2.534;2023-01-15T11:06:47;6.30;99.90
48988;DHT22;34799;51.440;-2.534;2023-01-15T11:09:22;6.20;99.90
48988;DHT22;34799;51.440;-2.534;2023-01-15T11:11:52;6.20;99.90
48988;DHT22;34799;51.440;-2.534;2023-01-15T11:14:34;6.20;99.90
48988;DHT22;34799;51.440;-2.534;2023-01-15T11:17:36;6.10;99.90
48988;DHT22;34799;51.440;-2.534;2023-01-15T11:20:34;6.10;99.90
48988;DHT22;34799;51.440;-2.534;2023-01-15T11:23:07;6.10;99.90
48988;DHT22;34799;51.440;-2.534;2023-01-15T11:25:37;6.40;99.90
48988;DHT22;34799;51.440;-2.534;2023-01-15T11:28:06;6.60;99.90
48988;DHT22;34799;51.440;-2.534;2023-01-15T11:30:36;6.20;99.90
48988;DHT22;34799;51.440;-2.534;2023-01-15T11:33:15;6.50;99.90
48988;DHT22;34799;51.440;-2.534;2023-01-15T11:35:51;7.00;99.90
48988;DHT22;34799;51.440;-2.534;2023-01-15T11:38:20;6.70;99.90
48988;DHT22;34799;51.440;-2.534;2023-01-15T11:41:00;6.80;99.90
48988;DHT22;34799;51.440;-2.534;2023-01-15T11:43:30;6.90;99.90
48988;DHT22;34799;51.440;-2.534;2023-01-15T11:46:30;7.20;99.90
48988;DHT22;34799;51.440;-2.534;2023-01-15T11:49:19;7.40;99.90
48988;DHT22;34799;51.440;-2.534;2023-01-15T11:52:16;7.80;99.90
48988;DHT22;34799;51.440;-2.534;2023-01-15T11:54:49;8.00;99.90
48988;DHT22;34799;51.440;-2.534;2023-01-15T11:57:32;8.10;99.90
48988;DHT22;34799;51.440;-2.534;2023-01-15T12:00:05;8.20;99.90
48988;DHT22;34799;51.440;-2.534;2023-01-15T12:02:40;8.30;99.90
48988;DHT22;34799;51.440;-2.534;2023-01-15T12:05:33;8.40;99.90
48988;DHT22;34799;51.440;-2.534;2023-01-15T12:08:17;8.30;99.90
48988;DHT22;34799;51.440;-2.534;2023-01-15T12:14:04;8.40;99.90
48988;DHT22;34799;51.440;-2.534;2023-01-15T12:19:37;7.10;99.90
48988;DHT22;34799;51.440;-2.534;2023-01-15T12:25:26;8.20;99.90
48988;DHT22;34799;51.440;-2.534;2023-01-15T12:28:21;8.20;99.90
48988;DHT22;34799;51.440;-2.534;2023-01-15T12:31:15;8.40;99.90
48988;DHT22;34799;51.440;-2.534;2023-01-15T12:36:46;8.40;99.90
48988;DHT22;34799;51.440;-2.534;2023-01-15T12:39:23;6.90;99.90
48988;DHT22;34799;51.440;-2.534;2023-01-15T12:42:10;7.00;99.90
48988;DHT22;34799;51.440;-2.534;2023-01-15T12:45:02;6.40;99.90
48988;DHT22;34799;51.440;-2.534;2023-01-15T12:53:09;5.90;99.90
48988;DHT22;34799;51.440;-2.534;2023-01-15T12:55:49;5.90;99.90
48988;DHT22;34799;51.440;-2.534;2023-01-15T13:06:52;6.50;99.90
48988;DHT22;34799;51.440;-2.534;2023-01-15T13:11:52;6.70;99.90
48988;DHT22;34799;51.440;-2.534;2023-01-15T13:14:19;6.70;99.90
48988;DHT22;34799;51.440;-2.534;2023-01-15T13:19:49;6.90;99.90
48988;DHT22;34799;51.440;-2.534;2023-01-15T13:22:26;7.20;99.90
48988;DHT22;34799;51.440;-2.534;2023-01-15T13:25:27;7.20;99.90
48988;DHT22;34799;51.440;-2.534;2023-01-15T13:28:26;7.00;99.90
48988;DHT22;34799;51.440;-2.534;2023-01-15T13:31:08;7.00;99.90
48988;DHT22;34799;51.440;-2.534;2023-01-15T13:33:45;7.10;99.90
48988;DHT22;34799;51.440;-2.534;2023-01-15T13:36:19;7.10;99.90
48988;DHT22;34799;51.440;-2.534;2023-01-15T13:38:53;7.10;99.90
48988;DHT22;34799;51.440;-2.534;2023-01-15T13:41:25;7.20;99.90
48988;DHT22;34799;51.440;-2.534;2023-01-15T13:44:23;7.10;99.90
48988;DHT22;34799;51.440;-2.534;2023-01-15T13:47:09;7.30;99.90
48988;DHT22;34799;51.440;-2.534;2023-01-15T13:49:40;8.00;99.90
48988;DHT22;34799;51.440;-2.534;2023-01-15T13:52:30;7.10;99.90
48988;DHT22;34799;51.440;-2.534;2023-01-15T13:57:54;7.10;99.90
48988;DHT22;34799;51.440;-2.534;2023-01-15T14:00:33;7.10;99.90
48988;DHT22;34799;51.440;-2.534;2023-01-15T14:03:24;7.10;99.90
48988;DHT22;34799;51.440;-2.534;2023-01-15T14:06:04;7.20;99.90
48988;DHT22;34799;51.440;-2.534;2023-01-15T14:08:40;7.20;99.90
48988;DHT22;34799;51.440;-2.534;2023-01-15T14:11:33;7.30;99.90
48988;DHT22;34799;51.440;-2.534;2023-01-15T14:31:18;7.40;99.90
48988;DHT22;34799;51.440;-2.534;2023-01-15T14:36:26;7.50;99.90
48988;DHT22;34799;51.440;-2.534;2023-01-15T14:39:01;7.50;99.90
48988;DHT22;34799;51.440;-2.534;2023-01-15T14:41:39;7.50;99.90
48988;DHT22;34799;51.440;-2.534;2023-01-15T14:44:29;8.20;99.90
48988;DHT22;34799;51.440;-2.534;2023-01-15T14:47:03;7.50;99.90
48988;DHT22;34799;51.440;-2.534;2023-01-15T14:49:43;7.70;99.90
48988;DHT22;34799;51.440;-2.534;2023-01-15T14:52:22;8.20;99.90
48988;DHT22;34799;51.440;-2.534;2023-01-15T14:54:51;7.50;99.90
48988;DHT22;34799;51.440;-2.534;2023-01-15T14:57:22;7.60;99.90
48988;DHT22;34799;51.440;-2.534;2023-01-15T14:59:57;7.60;99.90
48988;DHT22;34799;51.440;-2.534;2023-01-15T15:02:34;7.60;99.90
48988;DHT22;34799;51.440;-2.534;2023-01-15T15:05:04;7.60;99.90
48988;DHT22;34799;51.440;-2.534;2023-01-15T15:07:44;7.40;99.90
48988;DHT22;34799;51.440;-2.534;2023-01-15T15:10:32;7.40;99.90
48988;DHT22;34799;51.440;-2.534;2023-01-15T15:13:14;7.30;99.90
48988;DHT22;34799;51.440;-2.534;2023-01-15T15:16:16;7.30;99.90
48988;DHT22;34799;51.440;-2.534;2023-01-15T15:21:30;7.20;99.90
48988;DHT22;34799;51.440;-2.534;2023-01-15T15:26:50;7.20;99.90
48988;DHT22;34799;51.440;-2.534;2023-01-15T15:29:18;7.20;99.90
48988;DHT22;34799;51.440;-2.534;2023-01-15T15:31:52;7.10;99.90
48988;DHT22;34799;51.440;-2.534;2023-01-15T15:34:37;7.10;99.90
48988;DHT22;34799;51.440;-2.534;2023-01-15T15:37:18;7.00;99.90
48988;DHT22;34799;51.440;-2.534;2023-01-15T15:42:39;6.90;99.90
48988;DHT22;34799;51.440;-2.534;2023-01-15T15:45:28;6.80;99.90
48988;DHT22;34799;51.440;-2.534;2023-01-15T15:48:29;6.80;99.90
48988;DHT22;34799;51.440;-2.534;2023-01-15T15:54:26;6.80;99.90
48988;DHT22;34799;51.440;-2.534;2023-01-15T15:57:05;6.70;99.90
48988;DHT22;34799;51.440;-2.534;2023-01-15T15:59:46;6.70;99.90
48988;DHT22;34799;51.440;-2.534;2023-01-15T16:02:24;6.70;99.90
48988;DHT22;34799;51.440;-2.534;2023-01-15T16:04:57;6.70;99.90
48988;DHT22;34799;51.440;-2.534;2023-01-15T16:07:32;7.30;99.90
48988;DHT22;34799;51.440;-2.534;2023-01-15T16:10:28;6.70;99.90
48988;DHT22;34799;51.440;-2.534;2023-01-15T16:12:56;6.70;99.90
48988;DHT22;34799;51.440;-2.534;2023-01-15T16:15:30;7.30;99.90
48988;DHT22;34799;51.440;-2.534;2023-01-15T16:17:59;6.80;99.90
48988;DHT22;34799;51.440;-2.534;2023-01-15T16:20:29;8.40;99.90
48988;DHT22;34799;51.440;-2.534;2023-01-15T16:22:58;6.70;99.90
48988;DHT22;34799;51.440;-2.534;2023-01-15T16:25:39;6.70;99.90
48988;DHT22;34799;51.440;-2.534;2023-01-15T16:28:26;6.70;99.90
48988;DHT22;34799;51.440;-2.534;2023-01-15T16:30:58;6.70;99.90
48988;DHT22;34799;51.440;-2.534;2023-01-15T16:33:26;6.70;99.90
48988;DHT22;34799;51.440;-2.534;2023-01-15T16:35:58;6.60;99.90
48988;DHT22;34799;51.440;-2.534;2023-01-15T16:38:33;6.60;99.90
48988;DHT22;34799;51.440;-2.534;2023-01-15T16:41:00;7.30;99.90
48988;DHT22;34799;51.440;-2.534;2023-01-15T16:43:28;6.60;99.90
48988;DHT22;34799;51.440;-2.534;2023-01-15T16:46:03;6.60;99.90
48988;DHT22;34799;51.440;-2.534;2023-01-15T16:48:36;6.80;99.90
48988;DHT22;34799;51.440;-2.534;2023-01-15T16:51:34;6.90;99.90
48988;DHT22;34799;51.440;-2.534;2023-01-15T16:54:04;6.70;99.90
48988;DHT22;34799;51.440;-2.534;2023-01-15T17:01:44;6.70;99.90
48988;DHT22;34799;51.440;-2.534;2023-01-15T17:09:35;6.60;99.90
48988;DHT22;34799;51.440;-2.534;2023-01-15T17:12:07;6.60;99.90
48988;DHT22;34799;51.440;-2.534;2023-01-15T17:14:41;6.60;99.90
48988;DHT22;34799;51.440;-2.534;2023-01-15T17:19:45;6.60;99.90
48988;DHT22;34799;51.440;-2.534;2023-01-15T17:22:36;6.60;99.90
48988;DHT22;34799;51.440;-2.534;2023-01-15T17:25:22;6.50;99.90
48988;DHT22;34799;51.440;-2.534;2023-01-15T17:27:53;6.50;99.90
48988;DHT22;34799;51.440;-2.534;2023-01-15T17:30:20;6.50;99.90
48988;DHT22;34799;51.440;-2.534;2023-01-15T17:32:49;7.00;99.90
48988;DHT22;34799;51.440;-2.534;2023-01-15T17:35:25;6.50;99.90
48988;DHT22;34799;51.440;-2.534;2023-01-15T17:37:52;6.50;99.90
48988;DHT22;34799;51.440;-2.534;2023-01-15T17:40:20;6.90;99.90
48988;DHT22;34799;51.440;-2.534;2023-01-15T17:42:48;6.50;99.90
48988;DHT22;34799;51.440;-2.534;2023-01-15T17:45:21;6.50;99.90
48988;DHT22;34799;51.440;-2.534;2023-01-15T17:47:48;7.20;99.90
48988;DHT22;34799;51.440;-2.534;2023-01-15T17:50:17;6.50;99.90
48988;DHT22;34799;51.440;-2.534;2023-01-15T17:52:46;6.40;99.90
48988;DHT22;34799;51.440;-2.534;2023-01-15T17:55:19;6.40;99.90
48988;DHT22;34799;51.440;-2.534;2023-01-15T17:58:05;7.20;99.90
48988;DHT22;34799;51.440;-2.534;2023-01-15T18:00:51;6.90;99.90
48988;DHT22;34799;51.440;-2.534;2023-01-15T18:03:46;6.40;99.90
48988;DHT22;34799;51.440;-2.534;2023-01-15T18:06:33;6.40;99.90
48988;DHT22;34799;51.440;-2.534;2023-01-15T18:09:02;6.30;99.90
48988;DHT22;34799;51.440;-2.534;2023-01-15T18:11:30;6.30;99.90
48988;DHT22;34799;51.440;-2.534;2023-01-15T18:13:59;6.30;99.90
48988;DHT22;34799;51.440;-2.534;2023-01-15T18:16:27;6.20;99.90
48988;DHT22;34799;51.440;-2.534;2023-01-15T18:18:54;6.20;99.90
48988;DHT22;34799;51.440;-2.534;2023-01-15T18:21:21;6.10;99.90
48988;DHT22;34799;51.440;-2.534;2023-01-15T18:23:48;6.10;99.90
48988;DHT22;34799;51.440;-2.534;2023-01-15T18:26:15;6.10;99.90
48988;DHT22;34799;51.440;-2.534;2023-01-15T18:28:43;6.00;99.90
48988;DHT22;34799;51.440;-2.534;2023-01-15T18:31:12;6.00;99.90
48988;DHT22;34799;51.440;-2.534;2023-01-15T18:33:39;6.00;99.90
48988;DHT22;34799;51.440;-2.534;2023-01-15T18:36:09;6.00;99.90
48988;DHT22;34799;51.440;-2.534;2023-01-15T18:38:38;6.00;99.90
48988;DHT22;34799;51.440;-2.534;2023-01-15T18:41:14;5.90;99.90
48988;DHT22;34799;51.440;-2.534;2023-01-15T18:44:12;5.90;99.90
48988;DHT22;34799;51.440;-2.534;2023-01-15T18:47:00;5.90;99.90
48988;DHT22;34799;51.440;-2.534;2023-01-15T18:49:28;5.80;99.90
48988;DHT22;34799;51.440;-2.534;2023-01-15T18:51:56;6.70;99.90
48988;DHT22;34799;51.440;-2.534;2023-01-15T18:54:42;5.70;99.90
48988;DHT22;34799;51.440;-2.534;2023-01-15T18:57:10;5.70;99.90
48988;DHT22;34799;51.440;-2.534;2023-01-15T18:59:37;5.70;99.90
48988;DHT22;34799;51.440;-2.534;2023-01-15T19:02:04;6.60;99.90
48988;DHT22;34799;51.440;-2.534;2023-01-15T19:04:32;5.70;99.90
48988;DHT22;34799;51.440;-2.534;2023-01-15T19:07:01;5.70;99.90
48988;DHT22;34799;51.440;-2.534;2023-01-15T19:09:29;5.70;99.90
48988;DHT22;34799;51.440;-2.534;2023-01-15T19:11:57;5.60;99.90
48988;DHT22;34799;51.440;-2.534;2023-01-15T19:14:24;5.60;99.90
48988;DHT22;34799;51.440;-2.534;2023-01-15T19:17:16;5.60;99.90
48988;DHT22;34799;51.440;-2.534;2023-01-15T19:20:06;5.60;99.90
48988;DHT22;34799;51.440;-2.534;2023-01-15T19:22:33;5.60;99.90
48988;DHT22;34799;51.440;-2.534;2023-01-15T19:25:19;5.70;99.90
48988;DHT22;34799;51.440;-2.534;2023-01-15T19:27:49;5.70;99.90
48988;DHT22;34799;51.440;-2.534;2023-01-15T19:30:17;5.70;99.90
48988;DHT22;34799;51.440;-2.534;2023-01-15T19:32:45;6.60;99.90